Time;durP1;ratioP1;P1;durP2;ratioP2;P2;SDS_P1;SDS_P2;PMS_P1;PMS_P2;Temp;Humidity;BMP_temperature;BMP_pressure;BME280_temperature;BME280_humidity;BME280_pressure;Samples;Min_cycle;Max_cycle;Signal;HPM_P1;HPM_P2
2022/11/18 00:00:48;;;;;;;6.35;1.88;;;13.10;58.90;;;;;;5081346;28;20059;-47
2022/11/18 00:03:16;;;;;;;3.78;1.58;;;13.10;58.90;;;;;;5082210;28;20063;-46
2022/11/18 00:05:52;;;;;;;5.72;1.40;;;13.10;58.90;;;;;;5083814;28;20488;-47
2022/11/18 00:08:19;;;;;;;4.05;1.30;;;13.10;58.90;;;;;;5083512;28;20516;-51
2022/11/18 00:10:47;;;;;;;7.38;1.60;;;13.10;58.90;;;;;;5080493;28;20048;-46
2022/11/18 00:16:01;;;;;;;6.03;1.88;;;13.00;58.90;;;;;;5089437;28;20059;-51
2022/11/18 00:18:28;;;;;;;5.80;1.55;;;13.00;58.90;;;;;;5082604;28;20060;-52
2022/11/18 00:21:01;;;;;;;6.85;1.42;;;13.00;58.90;;;;;;5080913;28;20484;-45
2022/11/18 00:23:28;;;;;;;5.68;1.75;;;13.00;59.00;;;;;;5082139;28;20056;-46
2022/11/18 00:25:55;;;;;;;5.43;1.70;;;13.00;59.10;;;;;;5081590;28;20056;-49
2022/11/18 00:28:22;;;;;;;3.88;1.30;;;13.00;59.10;;;;;;5085111;28;20059;-49
2022/11/18 00:30:49;;;;;;;4.45;1.42;;;13.00;59.20;;;;;;5079516;28;20123;-47
2022/11/18 00:33:17;;;;;;;4.40;1.23;;;13.00;59.20;;;;;;5083779;28;20063;-44
2022/11/18 00:35:44;;;;;;;6.95;1.27;;;13.00;59.30;;;;;;5082299;28;20056;-44
2022/11/18 00:38:12;;;;;;;5.47;1.48;;;13.00;59.40;;;;;;5081245;28;20075;-46
2022/11/18 00:40:39;;;;;;;6.97;1.70;;;13.00;59.40;;;;;;5080343;28;20052;-47
2022/11/18 00:43:06;;;;;;;6.90;1.45;;;13.00;59.40;;;;;;5082215;28;20403;-49
2022/11/18 00:45:33;;;;;;;5.55;1.63;;;13.00;59.50;;;;;;5083206;28;20052;-45
2022/11/18 00:48:01;;;;;;;6.65;1.80;;;13.00;59.50;;;;;;5083068;28;20496;-46
2022/11/18 00:50:28;;;;;;;5.55;1.73;;;13.00;59.50;;;;;;5078931;28;20048;-48
2022/11/18 00:52:56;;;;;;;6.18;1.80;;;13.00;59.60;;;;;;5084062;28;20540;-48
2022/11/18 00:55:24;;;;;;;3.58;1.35;;;13.10;59.60;;;;;;5082517;28;20056;-46
2022/11/18 00:57:51;;;;;;;5.55;1.88;;;13.00;59.60;;;;;;5080956;28;20048;-43
2022/11/18 01:00:19;;;;;;;7.53;2.00;;;13.10;59.60;;;;;;5080468;28;20051;-51
2022/11/18 01:02:46;;;;;;;3.95;1.63;;;13.10;59.70;;;;;;5082751;28;20051;-46
2022/11/18 01:05:13;;;;;;;4.45;1.48;;;13.10;59.60;;;;;;5082927;28;20416;-44
2022/11/18 01:07:40;;;;;;;5.82;2.05;;;13.10;59.60;;;;;;5084056;28;20067;-43
2022/11/18 01:10:08;;;;;;;4.55;1.42;;;13.10;59.60;;;;;;5079078;28;20070;-50
2022/11/18 01:15:21;;;;;;;4.80;1.70;;;13.10;59.60;;;;;;5082473;28;20059;-50
2022/11/18 01:17:49;;;;;;;6.57;1.50;;;13.10;59.60;;;;;;5081116;28;20056;-49
2022/11/18 01:20:16;;;;;;;3.47;1.50;;;13.10;59.60;;;;;;5078418;28;20056;-45
2022/11/18 01:22:43;;;;;;;4.55;1.55;;;13.10;59.50;;;;;;5082132;28;20048;-46
2022/11/18 01:25:10;;;;;;;6.47;1.60;;;13.10;59.50;;;;;;5083621;28;20048;-44
2022/11/18 01:27:39;;;;;;;4.90;1.23;;;13.10;60.00;;;;;;5082715;28;20051;-47
2022/11/18 01:30:08;;;;;;;5.15;1.48;;;13.10;59.50;;;;;;5078540;28;20044;-49
2022/11/18 01:32:35;;;;;;;3.22;1.30;;;13.10;59.50;;;;;;5082624;28;20048;-46
2022/11/18 01:35:02;;;;;;;4.43;1.40;;;13.10;59.40;;;;;;5081780;28;20056;-49
2022/11/18 01:37:29;;;;;;;3.50;1.63;;;13.10;59.30;;;;;;5081809;28;20047;-49
2022/11/18 01:39:56;;;;;;;8.00;1.70;;;13.10;59.30;;;;;;5083378;28;20461;-45
2022/11/18 01:42:24;;;;;;;5.22;1.77;;;13.10;59.20;;;;;;5079388;28;20043;-49
2022/11/18 01:45:03;;;;;;;3.65;1.63;;;13.10;59.20;;;;;;5082300;28;20052;-44
2022/11/18 01:47:35;;;;;;;4.20;1.80;;;13.10;59.20;;;;;;5082636;28;20067;-47
2022/11/18 01:50:04;;;;;;;9.80;1.85;;;13.00;59.00;;;;;;5080633;28;20056;-49
2022/11/18 01:52:34;;;;;;;4.47;1.70;;;13.00;59.00;;;;;;5082295;28;20070;-45
2022/11/18 01:55:10;;;;;;;7.13;2.00;;;13.00;59.00;;;;;;5083662;28;20063;-43
2022/11/18 01:57:37;;;;;;;7.28;2.22;;;13.00;59.00;;;;;;5082672;28;20060;-45
2022/11/18 02:00:13;;;;;;;7.82;1.88;;;13.00;59.00;;;;;;5080396;28;20067;-49
2022/11/18 02:02:40;;;;;;;6.28;1.90;;;13.00;58.90;;;;;;5079456;28;20051;-46
2022/11/18 02:05:10;;;;;;;5.07;1.80;;;12.90;58.90;;;;;;5082649;28;21046;-49
2022/11/18 02:07:41;;;;;;;5.57;1.92;;;12.90;59.00;;;;;;5082796;28;20064;-48
2022/11/18 02:10:16;;;;;;;7.35;2.15;;;12.90;59.00;;;;;;5078358;28;20060;-49
2022/11/18 02:12:44;;;;;;;6.68;1.73;;;12.80;59.00;;;;;;5080823;28;20087;-44
2022/11/18 02:15:12;;;;;;;7.47;2.08;;;12.80;59.00;;;;;;5077696;28;20071;-47
2022/11/18 02:17:49;;;;;;;6.00;1.95;;;12.80;59.10;;;;;;5079277;28;20518;-46
2022/11/18 02:20:29;;;;;;;7.00;1.90;;;12.80;59.20;;;;;;5079224;28;20408;-45
2022/11/18 02:23:29;;;;;;;8.30;2.35;;;12.80;59.20;;;;;;5081901;28;20107;-44
2022/11/18 02:26:13;;;;;;;5.28;1.83;;;12.80;59.30;;;;;;5049467;28;20471;-46
2022/11/18 02:28:54;;;;;;;4.85;1.85;;;12.70;59.40;;;;;;5081997;28;20055;-47
2022/11/18 02:31:26;;;;;;;6.00;2.10;;;12.80;59.40;;;;;;5078481;28;20052;-46
2022/11/18 02:33:59;;;;;;;7.32;1.90;;;12.80;59.40;;;;;;5082187;28;20063;-45
2022/11/18 02:36:31;;;;;;;5.85;2.00;;;12.70;59.40;;;;;;5077197;28;20040;-44
2022/11/18 02:39:06;;;;;;;9.27;2.20;;;12.80;59.40;;;;;;5077793;28;20058;-51
2022/11/18 02:41:34;;;;;;;;;;;12.70;59.40;;;;;;5078993;28;20056;-48
2022/11/18 02:44:05;;;;;;;7.85;2.40;;;12.80;59.50;;;;;;5080612;28;20375;-49
2022/11/18 02:46:35;;;;;;;4.40;1.88;;;12.80;59.30;;;;;;5079948;28;20075;-47
2022/11/18 02:49:06;;;;;;;5.50;2.13;;;12.80;59.40;;;;;;5084195;28;20063;-49
2022/11/18 02:51:35;;;;;;;5.40;2.10;;;12.80;59.40;;;;;;5082489;28;20052;-48
2022/11/18 02:54:06;;;;;;;4.18;1.85;;;12.70;59.40;;;;;;5086090;28;20059;-48
2022/11/18 02:56:35;;;;;;;5.63;2.50;;;12.70;59.50;;;;;;5085344;28;20055;-46
2022/11/18 02:59:04;;;;;;;5.88;2.47;;;12.70;59.50;;;;;;5083022;28;20446;-43
2022/11/18 03:01:34;;;;;;;4.10;1.80;;;12.70;59.60;;;;;;5080498;28;20056;-44
2022/11/18 03:04:01;;;;;;;7.03;1.98;;;12.70;59.60;;;;;;5083766;28;20051;-45
2022/11/18 03:06:32;;;;;;;4.05;1.83;;;12.70;59.60;;;;;;5065436;28;20057;-44
2022/11/18 03:09:09;;;;;;;5.72;2.17;;;12.70;59.60;;;;;;5066103;28;20056;-50
2022/11/18 03:11:44;;;;;;;5.43;1.95;;;12.70;59.60;;;;;;5058255;28;20052;-48
2022/11/18 03:14:24;;;;;;;7.25;2.60;;;12.70;59.60;;;;;;5065946;28;20052;-47
2022/11/18 03:16:59;;;;;;;7.28;2.53;;;12.70;59.70;;;;;;5062741;28;20071;-52
2022/11/18 03:19:37;;;;;;;5.72;1.83;;;12.70;59.70;;;;;;5065121;28;20053;-48
2022/11/18 03:22:12;;;;;;;7.90;2.38;;;12.70;59.70;;;;;;5059294;28;20055;-45
2022/11/18 03:24:43;;;;;;;7.97;2.13;;;12.70;59.70;;;;;;5064536;28;20174;-47
2022/11/18 03:27:15;;;;;;;5.47;2.58;;;12.70;59.70;;;;;;5061586;28;20523;-47
2022/11/18 03:29:48;;;;;;;8.52;2.97;;;12.70;59.70;;;;;;5064664;28;20048;-47
2022/11/18 03:32:21;;;;;;;5.67;2.10;;;12.70;59.80;;;;;;5061841;28;20057;-47
2022/11/18 03:34:51;;;;;;;7.97;2.30;;;12.70;59.80;;;;;;5064481;28;20056;-52
2022/11/18 03:37:20;;;;;;;6.40;2.20;;;12.70;59.80;;;;;;5064306;28;20052;-54
2022/11/18 03:39:50;;;;;;;6.32;2.42;;;12.70;59.80;;;;;;5063337;28;20056;-53
2022/11/18 03:42:24;;;;;;;4.90;2.35;;;12.70;59.80;;;;;;5059765;28;20060;-53
2022/11/18 03:44:57;;;;;;;4.13;2.05;;;12.70;59.80;;;;;;5062925;28;20048;-53
2022/11/18 03:47:28;;;;;;;7.22;3.20;;;12.70;59.80;;;;;;5063488;28;20060;-53
2022/11/18 03:49:59;;;;;;;4.93;2.35;;;12.70;59.80;;;;;;5064002;28;20053;-53
2022/11/18 03:52:28;;;;;;;6.78;2.67;;;12.70;59.80;;;;;;5064057;28;20056;-54
2022/11/18 03:54:59;;;;;;;5.88;2.08;;;12.70;59.90;;;;;;5064438;28;20063;-54
2022/11/18 03:57:34;;;;;;;4.93;2.40;;;12.70;59.90;;;;;;5064551;28;20052;-53
2022/11/18 04:00:07;;;;;;;6.65;2.92;;;12.70;59.90;;;;;;5061115;28;20056;-53
2022/11/18 04:02:35;;;;;;;8.32;2.88;;;12.70;60.00;;;;;;5062846;28;20049;-54
2022/11/18 04:05:05;;;;;;;7.20;2.47;;;12.70;59.90;;;;;;5072798;28;20076;-54
2022/11/18 04:07:37;;;;;;;4.28;2.50;;;12.70;60.00;;;;;;5085333;28;20412;-54
2022/11/18 04:10:11;;;;;;;10.93;3.28;;;12.70;60.00;;;;;;5081256;28;20060;-54
2022/11/18 04:12:42;;;;;;;6.07;2.95;;;12.70;60.00;;;;;;5082102;28;20412;-54
2022/11/18 04:15:12;;;;;;;5.35;2.53;;;12.70;60.00;;;;;;5076520;28;20052;-54
2022/11/18 04:17:41;;;;;;;7.28;2.80;;;12.70;60.00;;;;;;5077945;28;20118;-53
2022/11/18 04:20:15;;;;;;;5.93;2.55;;;12.70;60.00;;;;;;5080005;28;20491;-54
2022/11/18 04:22:42;;;;;;;;;;;12.70;60.00;;;;;;5084120;28;20043;-54
2022/11/18 04:25:10;;;;;;;5.40;2.40;;;12.80;60.10;;;;;;5077380;28;19928;-53
2022/11/18 04:27:37;;;;;;;6.55;2.47;;;12.70;59.80;;;;;;5079291;28;20048;-55
2022/11/18 04:30:05;;;;;;;3.15;1.67;;;12.70;59.90;;;;;;5080553;28;20056;-50
2022/11/18 04:32:34;;;;;;;4.90;2.10;;;12.70;60.00;;;;;;5082280;28;20083;-54
2022/11/18 04:35:02;;;;;;;8.70;2.40;;;12.70;60.10;;;;;;5080764;28;20051;-53
2022/11/18 04:37:29;;;;;;;5.57;2.15;;;12.70;60.10;;;;;;5082653;28;20048;-54
2022/11/18 04:39:56;;;;;;;6.55;1.90;;;12.70;60.20;;;;;;5083110;28;20538;-55
2022/11/18 04:42:23;;;;;;;3.97;1.65;;;12.70;60.30;;;;;;5083353;28;20056;-54
2022/11/18 04:44:51;;;;;;;4.60;1.52;;;12.70;60.90;;;;;;5080558;28;20422;-54
2022/11/18 04:47:18;;;;;;;6.00;1.75;;;12.70;60.40;;;;;;5081727;28;20056;-50
2022/11/18 04:49:46;;;;;;;4.53;1.65;;;12.70;60.50;;;;;;5084477;28;20055;-47
2022/11/18 04:52:14;;;;;;;4.47;1.40;;;12.70;60.50;;;;;;5082629;28;20063;-54
2022/11/18 04:54:41;;;;;;;3.72;1.40;;;12.80;60.60;;;;;;5083044;28;20048;-54
2022/11/18 04:57:08;;;;;;;5.68;1.63;;;12.80;60.60;;;;;;5084065;28;20998;-54
2022/11/18 04:59:37;;;;;;;3.83;1.30;;;12.80;60.60;;;;;;5081979;28;20138;-51
2022/11/18 05:02:04;;;;;;;5.57;1.23;;;12.80;60.60;;;;;;5081167;28;20134;-54
2022/11/18 05:04:33;;;;;;;4.32;1.50;;;12.80;60.60;;;;;;5081594;28;20059;-50
2022/11/18 05:07:04;;;;;;;5.50;1.50;;;12.80;60.60;;;;;;5080935;28;20549;-51
2022/11/18 05:09:32;;;;;;;5.35;1.77;;;12.80;60.60;;;;;;5081611;28;20067;-52
2022/11/18 05:14:44;;;;;;;6.97;2.28;;;12.80;60.60;;;;;;5080648;28;20048;-54
2022/11/18 05:17:11;;;;;;;7.95;1.90;;;12.80;60.50;;;;;;5081229;28;20075;-54
2022/11/18 05:19:39;;;;;;;5.28;2.15;;;12.80;60.50;;;;;;5080255;28;20052;-49
2022/11/18 05:22:08;;;;;;;8.13;2.35;;;12.80;60.50;;;;;;5079080;28;20126;-53
2022/11/18 05:24:35;;;;;;;8.35;2.92;;;12.80;60.60;;;;;;5081212;28;20052;-54
2022/11/18 05:27:02;;;;;;;5.38;2.00;;;12.80;60.50;;;;;;5080934;28;20062;-53
2022/11/18 05:29:29;;;;;;;5.53;2.33;;;12.80;60.50;;;;;;5082641;28;20506;-50
2022/11/18 05:31:57;;;;;;;5.13;2.35;;;12.80;60.60;;;;;;5079816;28;20048;-49
2022/11/18 05:34:24;;;;;;;6.80;2.10;;;12.80;60.60;;;;;;5065388;28;20055;-52
2022/11/18 05:36:51;;;;;;;8.30;2.33;;;12.80;60.50;;;;;;5061307;28;20503;-53
2022/11/18 05:39:20;;;;;;;3.70;1.90;;;12.80;60.50;;;;;;5080821;28;20051;-53
2022/11/18 05:44:32;;;;;;;5.28;2.08;;;12.80;60.50;;;;;;5088080;28;20063;-50
2022/11/18 05:46:59;;;;;;;4.25;1.88;;;12.80;60.50;;;;;;5080066;28;20397;-54
2022/11/18 05:49:27;;;;;;;8.52;2.40;;;12.80;60.50;;;;;;5083049;28;20056;-55
2022/11/18 05:51:54;;;;;;;5.68;2.40;;;12.80;60.50;;;;;;5081284;28;20048;-53
2022/11/18 05:54:23;;;;;;;5.05;2.40;;;12.80;60.50;;;;;;5082556;28;20510;-54
2022/11/18 05:56:50;;;;;;;5.68;2.40;;;12.90;60.50;;;;;;5082117;28;20416;-54
2022/11/18 05:59:17;;;;;;;6.40;2.38;;;12.80;60.50;;;;;;5081418;28;20522;-54
2022/11/18 06:01:48;;;;;;;7.03;2.22;;;12.80;60.50;;;;;;5079157;28;20412;-52
2022/11/18 06:04:20;;;;;;;5.75;2.40;;;12.80;60.50;;;;;;5079195;28;20045;-55
2022/11/18 06:06:50;;;;;;;6.03;2.80;;;12.80;60.50;;;;;;5081565;28;20439;-54
2022/11/18 06:09:22;;;;;;;5.30;2.05;;;12.80;60.40;;;;;;5077400;28;20048;-53
2022/11/18 06:11:55;;;;;;;7.40;2.58;;;12.80;60.40;;;;;;5074073;28;20063;-55
2022/11/18 06:14:28;;;;;;;5.33;2.00;;;12.80;61.10;;;;;;5081055;28;20052;-54
2022/11/18 06:17:00;;;;;;;5.88;2.00;;;12.80;60.50;;;;;;5080384;28;20480;-54
2022/11/18 06:19:28;;;;;;;5.68;2.00;;;12.80;60.60;;;;;;5080081;28;20056;-54
2022/11/18 06:21:55;;;;;;;6.05;2.58;;;12.80;60.60;;;;;;5079777;28;20416;-54
2022/11/18 06:24:23;;;;;;;3.92;2.20;;;12.80;60.60;;;;;;5080928;28;20539;-53
2022/11/18 06:26:52;;;;;;;7.57;2.55;;;12.80;60.60;;;;;;5083704;28;20385;-52
2022/11/18 06:29:20;;;;;;;52.10;22.45;;;12.80;60.70;;;;;;5080570;28;20047;-53
2022/11/18 06:31:48;;;;;;;89.28;35.28;;;12.80;60.70;;;;;;5072369;28;20059;-53
2022/11/18 06:34:15;;;;;;;28.38;12.05;;;12.80;60.70;;;;;;5073472;28;20056;-52
2022/11/18 06:36:42;;;;;;;10.80;4.72;;;12.80;60.70;;;;;;5077640;28;20491;-53
2022/11/18 06:39:10;;;;;;;4.47;2.55;;;12.80;60.70;;;;;;5078325;28;20052;-54
2022/11/18 06:41:37;;;;;;;7.15;2.67;;;12.80;60.70;;;;;;5082550;28;20067;-54
2022/11/18 06:44:06;;;;;;;5.32;2.10;;;12.80;61.40;;;;;;5082024;28;20056;-54
2022/11/18 07:02:57;;;;;;;5.15;2.33;;;12.80;60.30;;;;;;5097078;22;20031;-51
2022/11/18 07:05:24;;;;;;;7.50;2.67;;;12.80;60.40;;;;;;5042056;28;20401;-53
2022/11/18 07:07:51;;;;;;;5.75;2.40;;;12.80;60.50;;;;;;5044505;28;20404;-52
2022/11/18 07:10:19;;;;;;;6.20;2.53;;;12.70;60.50;;;;;;5036607;28;20053;-51
2022/11/18 07:12:46;;;;;;;6.40;3.30;;;12.80;60.60;;;;;;5044948;28;20064;-53
2022/11/18 07:15:13;;;;;;;4.15;2.80;;;12.70;60.60;;;;;;5043392;28;20041;-54
2022/11/18 07:17:40;;;;;;;4.80;3.00;;;12.70;60.60;;;;;;5043768;28;20045;-52
2022/11/18 07:20:10;;;;;;;5.03;2.63;;;12.70;60.70;;;;;;5038618;28;20048;-49
2022/11/18 07:22:37;;;;;;;7.38;3.33;;;12.80;60.80;;;;;;5043645;28;20045;-53
2022/11/18 07:25:05;;;;;;;6.35;3.65;;;12.70;60.80;;;;;;5043767;28;20048;-53
2022/11/18 07:27:32;;;;;;;9.23;4.68;;;12.80;60.90;;;;;;5044937;28;20079;-51
2022/11/18 07:30:00;;;;;;;10.43;4.00;;;12.70;60.80;;;;;;5044473;28;20067;-52
2022/11/18 07:32:27;;;;;;;8.38;4.00;;;12.80;60.90;;;;;;5040747;28;20436;-53
2022/11/18 07:34:54;;;;;;;8.95;4.10;;;12.80;60.90;;;;;;5040885;28;20052;-54
2022/11/18 07:37:23;;;;;;;9.18;3.97;;;12.80;61.00;;;;;;5041323;28;20115;-51
2022/11/18 07:39:50;;;;;;;7.28;3.60;;;12.80;61.00;;;;;;5038868;28;20052;-51
2022/11/18 07:42:19;;;;;;;6.53;3.72;;;12.80;61.00;;;;;;5039980;28;20519;-52
2022/11/18 07:44:46;;;;;;;7.10;3.55;;;12.80;61.00;;;;;;5043385;28;20520;-54
2022/11/18 07:47:13;;;;;;;8.85;3.38;;;12.80;61.00;;;;;;5039222;28;20063;-53
2022/11/18 07:49:40;;;;;;;7.95;3.55;;;12.90;61.10;;;;;;5037240;28;20053;-51
2022/11/18 07:52:08;;;;;;;7.18;2.97;;;12.80;61.00;;;;;;5036003;28;20527;-53
2022/11/18 07:54:36;;;;;;;5.63;2.85;;;12.90;61.10;;;;;;5043438;28;20053;-53
2022/11/18 07:57:04;;;;;;;4.80;2.67;;;12.80;61.10;;;;;;5042978;28;20053;-52
2022/11/18 07:59:31;;;;;;;5.63;2.63;;;12.80;61.10;;;;;;5040673;28;20397;-52
2022/11/18 08:01:58;;;;;;;6.22;2.83;;;12.90;61.20;;;;;;5035489;28;20052;-51
2022/11/18 08:04:26;;;;;;;7.10;2.60;;;12.90;61.20;;;;;;5040582;28;20065;-53
2022/11/18 08:06:53;;;;;;;9.43;3.03;;;12.90;61.20;;;;;;5042943;28;20056;-52
2022/11/18 08:09:20;;;;;;;5.22;2.58;;;12.90;61.20;;;;;;5040410;28;20057;-51
2022/11/18 08:11:49;;;;;;;7.65;2.80;;;12.90;61.20;;;;;;5033568;28;20059;-55
2022/11/18 08:14:16;;;;;;;5.28;2.45;;;12.90;61.20;;;;;;5039779;28;20057;-50
2022/11/18 08:16:43;;;;;;;7.43;2.55;;;13.00;61.30;;;;;;5036818;28;20060;-53
2022/11/18 08:19:10;;;;;;;7.47;2.30;;;12.90;61.20;;;;;;5041528;28;20053;-54
2022/11/18 08:21:37;;;;;;;7.40;1.92;;;12.90;61.20;;;;;;5038336;28;20056;-54
2022/11/18 08:24:06;;;;;;;4.63;1.73;;;12.90;61.20;;;;;;5043150;28;20049;-51
2022/11/18 08:26:33;;;;;;;9.68;1.65;;;12.90;61.20;;;;;;5043205;28;20040;-52
2022/11/18 08:29:02;;;;;;;6.30;2.22;;;12.90;61.20;;;;;;5040791;28;20485;-54
2022/11/18 08:31:30;;;;;;;7.10;1.98;;;13.00;61.40;;;;;;5034088;28;20053;-50
2022/11/18 08:33:59;;;;;;;7.35;2.20;;;13.00;61.40;;;;;;5040405;28;20064;-54
2022/11/18 08:36:28;;;;;;;4.90;2.20;;;13.00;61.40;;;;;;5037606;28;20053;-54
2022/11/18 08:38:56;;;;;;;3.42;2.17;;;13.00;61.50;;;;;;5034738;28;20057;-52
2022/11/18 08:41:29;;;;;;;6.93;2.17;;;13.00;61.50;;;;;;5031757;28;20064;-53
2022/11/18 08:43:56;;;;;;;3.50;1.98;;;13.00;61.60;;;;;;5037152;28;20057;-55
2022/11/18 08:46:25;;;;;;;7.85;2.15;;;13.00;61.60;;;;;;5037045;28;20049;-54
2022/11/18 08:48:52;;;;;;;8.20;1.90;;;13.10;61.80;;;;;;5041046;28;20072;-54
2022/11/18 08:51:19;;;;;;;7.18;1.63;;;13.10;61.80;;;;;;5037392;28;20053;-54
2022/11/18 08:53:47;;;;;;;3.55;1.58;;;13.10;61.80;;;;;;5042919;28;21364;-52
2022/11/18 08:56:16;;;;;;;3.40;1.80;;;13.10;61.80;;;;;;5040433;28;20049;-55
2022/11/18 08:58:44;;;;;;;3.40;1.23;;;13.20;61.80;;;;;;5040366;28;20052;-53
2022/11/18 09:01:11;;;;;;;3.95;1.60;;;13.20;61.80;;;;;;5034607;28;20064;-53
2022/11/18 09:03:40;;;;;;;6.07;2.33;;;13.20;61.80;;;;;;5039338;28;20061;-54
2022/11/18 09:06:09;;;;;;;4.90;1.50;;;13.20;61.70;;;;;;5041359;28;20048;-54
2022/11/18 09:08:36;;;;;;;3.00;1.38;;;13.20;61.60;;;;;;5040341;28;20056;-55
2022/11/18 09:11:06;;;;;;;5.97;1.60;;;13.20;61.60;;;;;;5038027;28;20053;-51
2022/11/18 09:13:33;;;;;;;5.45;1.58;;;13.30;61.60;;;;;;5040980;28;20076;-53
2022/11/18 09:16:01;;;;;;;5.15;1.73;;;13.30;61.70;;;;;;5040217;28;20055;-54
2022/11/18 09:18:29;;;;;;;5.60;1.63;;;13.20;61.60;;;;;;5040872;28;20519;-52
2022/11/18 09:20:59;;;;;;;3.53;1.38;;;13.30;61.70;;;;;;5039538;28;20049;-53
2022/11/18 09:23:27;;;;;;;3.92;1.35;;;13.30;61.90;;;;;;5033616;28;20071;-52
2022/11/18 09:25:58;;;;;;;4.40;1.42;;;13.30;61.90;;;;;;5036634;28;20053;-50
2022/11/18 09:28:26;;;;;;;4.35;1.45;;;13.30;62.00;;;;;;5041246;28;20049;-52
2022/11/18 09:30:54;;;;;;;3.53;1.35;;;13.40;62.10;;;;;;5037575;28;20052;-53
2022/11/18 09:33:21;;;;;;;3.00;1.27;;;13.30;62.20;;;;;;5038968;28;20053;-54
2022/11/18 09:35:49;;;;;;;3.25;1.20;;;13.40;62.30;;;;;;5040355;28;20521;-52
2022/11/18 09:38:17;;;;;;;3.20;1.30;;;13.40;62.40;;;;;;5040057;28;20064;-54
2022/11/18 09:40:55;;;;;;;2.70;1.48;;;13.50;62.50;;;;;;5037396;28;20053;-53
2022/11/18 09:43:33;;;;;;;4.95;1.98;;;13.50;62.60;;;;;;5040622;28;20068;-51
2022/11/18 09:46:06;;;;;;;5.78;1.83;;;13.50;62.60;;;;;;5037771;28;20432;-54
2022/11/18 09:51:27;;;;;;;4.70;2.90;;;13.60;62.50;;;;;;5045110;28;20400;-53
2022/11/18 09:53:56;;;;;;;4.43;1.98;;;13.70;62.50;;;;;;5039676;28;20056;-54
2022/11/18 09:56:23;;;;;;;5.57;2.08;;;13.70;62.50;;;;;;5041400;28;21089;-53
2022/11/18 09:58:51;;;;;;;4.40;1.67;;;13.70;62.50;;;;;;5044037;28;20488;-54
2022/11/18 10:01:20;;;;;;;2.72;1.50;;;13.70;62.60;;;;;;5036377;28;20056;-51
2022/11/18 10:03:47;;;;;;;2.67;1.58;;;13.80;62.70;;;;;;5048003;28;20048;-53
2022/11/18 10:06:21;;;;;;;3.83;1.20;;;13.80;62.70;;;;;;5045161;28;20068;-52
2022/11/18 10:09:04;;;;;;;4.72;1.30;;;13.80;62.40;;;;;;5029958;28;20049;-53
2022/11/18 10:11:38;;;;;;;3.22;0.98;;;13.90;62.20;;;;;;5042948;28;20064;-54
2022/11/18 10:14:20;;;;;;;2.63;1.20;;;13.90;62.10;;;;;;5046454;28;20504;-49
2022/11/18 10:16:57;;;;;;;6.05;1.33;;;13.90;62.00;;;;;;5043144;28;20393;-52
2022/11/18 10:19:30;;;;;;;4.25;1.60;;;14.00;61.80;;;;;;5044532;28;20045;-53
2022/11/18 10:22:16;;;;;;;2.92;1.23;;;14.00;61.60;;;;;;5044147;28;20069;-51
2022/11/18 10:24:49;;;;;;;3.90;1.40;;;14.00;61.50;;;;;;5044474;28;20056;-54
2022/11/18 10:27:17;;;;;;;7.13;1.60;;;14.00;61.50;;;;;;5041541;28;20053;-51
2022/11/18 10:29:51;;;;;;;3.10;1.30;;;14.00;61.40;;;;;;5036263;28;20053;-54
2022/11/18 10:32:19;;;;;;;;;;;14.00;61.30;;;;;;5038263;28;20497;-54
2022/11/18 10:34:49;;;;;;;6.63;1.30;;;14.00;61.20;;;;;;5040959;28;19927;-52
2022/11/18 10:37:26;;;;;;;4.55;1.40;;;14.00;60.80;;;;;;5045970;28;20060;-54
2022/11/18 10:39:56;;;;;;;3.33;1.00;;;14.00;60.60;;;;;;5044891;28;21328;-55
2022/11/18 10:42:28;;;;;;;7.57;1.67;;;14.00;60.70;;;;;;5045475;28;20519;-51
2022/11/18 10:44:56;;;;;;;5.85;1.33;;;14.00;60.60;;;;;;5044177;28;20049;-56
2022/11/18 10:47:29;;;;;;;9.23;1.83;;;14.00;60.50;;;;;;5044872;28;20509;-55
2022/11/18 10:49:59;;;;;;;3.60;1.30;;;14.00;60.30;;;;;;5047835;28;20056;-55
2022/11/18 10:52:28;;;;;;;5.35;1.10;;;14.00;60.40;;;;;;5042543;28;20503;-56
2022/11/18 10:55:20;;;;;;;7.97;1.42;;;14.00;60.20;;;;;;5046667;28;20068;-50
2022/11/18 10:57:50;;;;;;;3.10;0.95;;;14.00;59.70;;;;;;5044583;28;20523;-55
2022/11/18 11:00:38;;;;;;;2.72;1.02;;;14.00;59.90;;;;;;5045874;28;20056;-55
2022/11/18 11:03:25;;;;;;;4.00;1.13;;;14.00;59.80;;;;;;5043446;28;20509;-56
2022/11/18 11:06:22;;;;;;;5.40;1.45;;;14.00;59.80;;;;;;5038703;28;20060;-55
2022/11/18 11:08:51;;;;;;;7.43;1.50;;;14.10;59.80;;;;;;5044448;28;20057;-55
2022/11/18 11:11:28;;;;;;;4.40;1.30;;;14.10;59.90;;;;;;5039814;28;20060;-52
2022/11/18 11:14:05;;;;;;;3.15;1.10;;;14.10;60.00;;;;;;5036936;28;20053;-54
2022/11/18 11:16:39;;;;;;;2.45;1.08;;;14.10;60.00;;;;;;5033954;28;20056;-50
2022/11/18 11:19:11;;;;;;;8.43;1.50;;;14.10;59.80;;;;;;5034137;28;20408;-55
2022/11/18 11:21:38;;;;;;;5.00;1.10;;;14.10;59.90;;;;;;5030296;28;20409;-56
2022/11/18 11:24:11;;;;;;;4.88;1.35;;;14.20;59.90;;;;;;5033646;28;20048;-55
2022/11/18 11:26:46;;;;;;;2.97;1.20;;;14.20;59.60;;;;;;5039074;28;20060;-55
2022/11/18 11:29:26;;;;;;;5.70;1.73;;;14.20;59.50;;;;;;5041582;28;20053;-53
2022/11/18 11:32:01;;;;;;;8.00;1.38;;;14.20;59.20;;;;;;5037628;28;20060;-51
2022/11/18 11:34:36;;;;;;;5.10;1.52;;;14.20;58.60;;;;;;5042361;28;20409;-53
2022/11/18 11:37:14;;;;;;;7.15;1.83;;;14.20;58.60;;;;;;5045016;28;20049;-49
2022/11/18 11:39:58;;;;;;;2.38;1.15;;;14.20;58.30;;;;;;5040804;28;20560;-49
2022/11/18 11:42:32;;;;;;;;;;;14.20;58.60;;;;;;5044592;28;20055;-50
2022/11/18 11:45:16;;;;;;;3.40;1.00;;;14.20;58.70;;;;;;5044573;28;19924;-49
2022/11/18 11:47:56;;;;;;;4.95;1.55;;;14.20;57.80;;;;;;5043866;28;20059;-47
2022/11/18 11:50:29;;;;;;;6.07;1.67;;;14.20;57.90;;;;;;5043212;28;20049;-48
2022/11/18 11:53:14;;;;;;;8.48;1.80;;;14.20;57.80;;;;;;5045644;28;20049;-53
2022/11/18 11:55:55;;;;;;;6.57;1.50;;;14.20;58.00;;;;;;5043275;28;20064;-53
2022/11/18 11:58:39;;;;;;;1.70;0.98;;;14.20;58.00;;;;;;5041375;28;20057;-54
2022/11/18 12:01:18;;;;;;;3.30;1.20;;;14.20;58.20;;;;;;5043030;28;20049;-52
2022/11/18 12:03:48;;;;;;;4.15;1.35;;;14.20;58.40;;;;;;5043066;28;20429;-55
2022/11/18 12:06:15;;;;;;;7.03;1.35;;;14.30;58.40;;;;;;5044294;28;20059;-53
2022/11/18 12:08:52;;;;;;;5.35;1.15;;;14.30;58.30;;;;;;5032865;28;20057;-54
2022/11/18 12:11:27;;;;;;;6.22;1.38;;;14.40;57.90;;;;;;5038641;28;20068;-55
2022/11/18 12:14:01;;;;;;;4.30;1.17;;;14.40;57.60;;;;;;5036447;28;20053;-52
2022/11/18 12:16:31;;;;;;;;;;;14.50;57.50;;;;;;5042099;28;20057;-55
2022/11/18 12:19:02;;;;;;;11.13;1.40;;;14.50;57.70;;;;;;5043727;28;19920;-52
2022/11/18 12:22:04;;;;;;;6.15;1.60;;;14.50;57.50;;;;;;5038574;28;20053;-51
2022/11/18 12:24:36;;;;;;;5.88;1.10;;;14.50;56.60;;;;;;4960442;28;20055;-52
2022/11/18 12:27:10;;;;;;;5.63;1.25;;;14.50;56.40;;;;;;5022391;28;20080;-51
2022/11/18 12:29:54;;;;;;;6.88;1.05;;;14.50;56.20;;;;;;5041552;28;20057;-52
2022/11/18 12:32:41;;;;;;;4.32;0.98;;;14.50;55.70;;;;;;5031457;28;20057;-51
2022/11/18 12:35:24;;;;;;;4.65;1.10;;;14.50;55.40;;;;;;5044801;28;20068;-51
2022/11/18 12:37:59;;;;;;;5.53;1.08;;;14.50;54.60;;;;;;5045361;28;20045;-52
2022/11/18 12:40:38;;;;;;;7.53;1.45;;;14.40;54.30;;;;;;5039822;28;20060;-52
2022/11/18 12:45:55;;;;;;;3.83;0.90;;;14.40;55.00;;;;;;5033788;28;20727;-50
2022/11/18 12:48:37;;;;;;;7.15;0.88;;;14.40;54.60;;;;;;5034328;28;20056;-52
2022/11/18 12:51:45;;;;;;;4.25;1.00;;;14.40;54.60;;;;;;5030599;28;20421;-46
2022/11/18 12:54:28;;;;;;;4.00;1.10;;;14.40;54.90;;;;;;5043171;28;20057;-47
2022/11/18 12:56:58;;;;;;;8.45;1.10;;;14.40;54.50;;;;;;5042769;28;20048;-53
2022/11/18 12:59:31;;;;;;;4.40;0.88;;;14.40;54.80;;;;;;5040657;28;20392;-52
2022/11/18 13:02:22;;;;;;;4.35;0.82;;;14.50;54.80;;;;;;5038700;28;20072;-54
2022/11/18 13:05:07;;;;;;;5.22;1.10;;;14.50;55.00;;;;;;5038387;28;20064;-53
2022/11/18 13:10:29;;;;;;;4.50;0.85;;;14.50;54.90;;;;;;5039909;28;20052;-51
2022/11/18 13:12:56;;;;;;;8.35;2.35;;;14.60;55.00;;;;;;5042481;28;21254;-55
2022/11/18 13:18:15;;;;;;;5.28;1.30;;;14.60;54.90;;;;;;5049124;28;20064;-55
2022/11/18 13:20:43;;;;;;;6.18;1.27;;;14.60;54.80;;;;;;5042470;28;20417;-55
2022/11/18 13:26:27;;;;;;;8.95;1.40;;;14.60;54.50;;;;;;5015215;28;20053;-55
2022/11/18 13:29:14;;;;;;;2.55;0.70;;;14.60;54.80;;;;;;5041803;28;20044;-52
2022/11/18 13:31:50;;;;;;;7.35;1.08;;;14.70;55.00;;;;;;5039331;28;20113;-49
2022/11/18 13:34:22;;;;;;;11.52;1.23;;;14.70;55.10;;;;;;5042949;28;20053;-51
2022/11/18 13:36:50;;;;;;;4.97;1.70;;;14.70;55.20;;;;;;5042128;28;20922;-50
2022/11/18 13:39:22;;;;;;;4.75;1.20;;;14.70;55.20;;;;;;5040636;28;20053;-50
2022/11/18 13:41:59;;;;;;;6.22;1.70;;;14.70;55.10;;;;;;5041669;28;20060;-51
2022/11/18 13:44:29;;;;;;;6.18;1.17;;;14.80;55.00;;;;;;5043253;28;20060;-49
2022/11/18 13:47:05;;;;;;;2.50;0.93;;;14.80;55.00;;;;;;5039679;28;20251;-52
2022/11/18 13:49:50;;;;;;;3.35;1.17;;;14.80;55.00;;;;;;5041780;28;20424;-52